createdAt,value
2022-09-17T00:00:52.476Z,38.72
2022-09-17T00:03:19.226Z,41.88
2022-09-17T00:05:45.765Z,43.67
2022-09-17T00:08:14.981Z,41.45
2022-09-17T00:10:44.749Z,38.03
2022-09-17T00:13:12.231Z,32.45
2022-09-17T00:15:43.726Z,30.80
2022-09-17T00:18:11.200Z,30.67
2022-09-17T00:20:47.411Z,26.00
2022-09-17T00:23:14.923Z,28.13
2022-09-17T00:25:44.148Z,26.45
2022-09-17T00:28:12.049Z,29.98
2022-09-17T00:30:43.838Z,27.00
2022-09-17T00:33:16.903Z,28.33
2022-09-17T00:35:44.422Z,24.05
2022-09-17T00:38:11.496Z,20.70
2022-09-17T00:40:38.824Z,25.60
2022-09-17T00:43:11.755Z,24.67
2022-09-17T00:45:40.048Z,18.23
2022-09-17T00:48:07.022Z,31.38
2022-09-17T00:50:41.836Z,33.40
2022-09-17T00:53:13.840Z,22.98
2022-09-17T00:58:14.999Z,27.63
2022-09-17T01:00:41.622Z,27.98
2022-09-17T01:03:08.834Z,26.00
2022-09-17T01:06:01.452Z,25.15
2022-09-17T01:09:06.400Z,26.33
2022-09-17T01:11:48.099Z,24.65
2022-09-17T01:14:35.629Z,22.20
2022-09-17T01:17:27.579Z,29.80
2022-09-17T01:20:19.121Z,16.98
2022-09-17T01:23:23.308Z,28.67
2022-09-17T01:25:52.588Z,28.27
2022-09-17T01:28:18.999Z,29.70
2022-09-17T01:31:11.677Z,25.35
2022-09-17T01:33:46.577Z,29.60
2022-09-17T01:36:52.565Z,29.77
2022-09-17T01:39:32.395Z,35.08
2022-09-17T01:42:10.804Z,32.05
2022-09-17T01:44:55.709Z,34.10
2022-09-17T01:47:35.639Z,37.13
2022-09-17T01:50:10.561Z,33.60
2022-09-17T01:52:40.456Z,30.23
2022-09-17T01:55:13.115Z,29.02
2022-09-17T01:57:47.477Z,34.47
2022-09-17T02:00:17.185Z,29.10
2022-09-17T02:03:06.402Z,32.72
2022-09-17T02:06:03.132Z,38.95
2022-09-17T02:08:42.309Z,28.58
2022-09-17T02:11:12.345Z,130.10
2022-09-17T02:13:56.051Z,90.05
2022-09-17T02:16:26.873Z,100.95
2022-09-17T02:19:09.158Z,202.73
2022-09-17T02:24:18.140Z,175.27
2022-09-17T02:27:06.811Z,93.53
2022-09-17T02:29:36.845Z,73.65
2022-09-17T02:32:04.466Z,142.45
2022-09-17T02:34:31.499Z,43.15
2022-09-17T02:36:59.512Z,43.60
2022-09-17T02:39:26.858Z,39.25
2022-09-17T02:42:08.353Z,52.45
2022-09-17T02:44:40.616Z,29.88
2022-09-17T02:50:18.024Z,29.35
2022-09-17T02:52:50.731Z,25.23
2022-09-17T02:55:28.180Z,26.88
2022-09-17T02:58:10.257Z,28.40
2022-09-17T03:00:39.468Z,72.65
2022-09-17T03:03:21.976Z,86.07
2022-09-17T03:05:49.869Z,114.78
2022-09-17T03:08:20.127Z,56.80
2022-09-17T03:10:49.164Z,54.25
2022-09-17T03:13:16.309Z,75.45
2022-09-17T03:15:43.212Z,77.90
2022-09-17T03:18:09.900Z,52.15
2022-09-17T03:20:36.761Z,51.50
2022-09-17T03:23:03.273Z,60.47
2022-09-17T03:25:29.879Z,45.20
2022-09-17T03:27:56.688Z,57.15
2022-09-17T03:30:23.276Z,53.85
2022-09-17T03:32:49.812Z,48.30
2022-09-17T03:35:16.380Z,43.85
2022-09-17T03:37:43.119Z,45.30
2022-09-17T03:40:10.415Z,41.33
2022-09-17T03:42:37.020Z,47.22
2022-09-17T03:45:03.905Z,49.55
2022-09-17T03:47:31.003Z,138.77
2022-09-17T03:49:57.745Z,224.80
2022-09-17T03:52:24.309Z,268.45
2022-09-17T03:54:50.989Z,69.32
2022-09-17T03:57:17.463Z,54.83
2022-09-17T03:59:44.001Z,62.78
2022-09-17T04:02:10.630Z,31.65
2022-09-17T04:04:37.748Z,40.70
2022-09-17T04:07:04.796Z,109.68
2022-09-17T04:09:33.287Z,165.13
2022-09-17T04:12:02.071Z,137.40
2022-09-17T04:14:28.611Z,106.97
2022-09-17T04:16:55.225Z,64.68
2022-09-17T04:19:21.733Z,128.43
2022-09-17T04:21:48.608Z,70.55
2022-09-17T04:24:15.367Z,78.70
2022-09-17T04:26:41.952Z,64.13
2022-09-17T04:29:10.035Z,51.65
2022-09-17T04:31:36.904Z,107.18
2022-09-17T04:34:03.640Z,130.13
2022-09-17T04:36:30.195Z,77.05
2022-09-17T04:38:56.803Z,40.03
2022-09-17T04:41:23.381Z,37.40
2022-09-17T04:43:50.244Z,47.75
2022-09-17T04:46:16.942Z,86.72
2022-09-17T04:48:43.630Z,48.30
2022-09-17T04:51:10.270Z,38.67
2022-09-17T04:53:38.485Z,38.25
2022-09-17T04:56:05.454Z,59.70
2022-09-17T04:58:32.938Z,39.85
2022-09-17T05:00:59.871Z,33.65
2022-09-17T05:03:26.601Z,29.52
2022-09-17T05:05:53.200Z,30.60
2022-09-17T05:08:19.796Z,29.13
2022-09-17T05:10:46.392Z,30.40
2022-09-17T05:13:12.931Z,30.92
2022-09-17T05:15:39.479Z,30.45
2022-09-17T05:18:06.085Z,30.95
2022-09-17T05:20:32.674Z,31.27
2022-09-17T05:22:59.289Z,35.70
2022-09-17T05:25:26.115Z,34.80
2022-09-17T05:27:53.944Z,32.63
2022-09-17T05:30:21.096Z,37.78
2022-09-17T05:32:47.929Z,40.92
2022-09-17T05:35:14.539Z,35.47
2022-09-17T05:37:41.277Z,39.58
2022-09-17T05:40:09.349Z,38.05
2022-09-17T05:42:36.323Z,41.97
2022-09-17T05:45:03.899Z,40.40
2022-09-17T05:47:30.460Z,45.22
2022-09-17T05:49:57.020Z,41.35
2022-09-17T05:52:28.099Z,38.75
2022-09-17T05:54:55.591Z,40.88
2022-09-17T05:57:22.325Z,37.20
2022-09-17T05:59:49.356Z,35.80
2022-09-17T06:02:15.956Z,40.67
2022-09-17T06:04:42.579Z,38.03
2022-09-17T06:07:09.314Z,59.72
2022-09-17T06:09:37.594Z,66.00
2022-09-17T06:12:05.113Z,52.28
2022-09-17T06:14:31.755Z,48.28
2022-09-17T06:16:58.280Z,48.58
2022-09-17T06:19:24.860Z,48.97
2022-09-17T06:21:52.620Z,50.10
2022-09-17T06:24:19.181Z,55.17
2022-09-17T06:26:45.753Z,58.40
2022-09-17T06:29:15.117Z,42.58
2022-09-17T06:31:44.645Z,38.92
2022-09-17T06:34:11.847Z,37.47
2022-09-17T06:36:38.443Z,31.25
2022-09-17T06:39:05.060Z,36.28
2022-09-17T06:41:31.652Z,35.15
2022-09-17T06:43:58.689Z,22.88
2022-09-17T06:46:25.752Z,20.20
2022-09-17T06:48:52.425Z,20.50
2022-09-17T06:51:19.094Z,22.00
2022-09-17T06:53:45.665Z,11.27
2022-09-17T06:56:12.233Z,15.90
2022-09-17T06:58:39.647Z,21.08
2022-09-17T07:01:06.500Z,11.60
2022-09-17T07:03:33.795Z,18.10
2022-09-17T07:06:00.526Z,11.07
2022-09-17T07:08:27.376Z,14.07
2022-09-17T07:10:58.424Z,16.95
2022-09-17T07:13:25.546Z,9.07
2022-09-17T07:15:57.898Z,17.75
2022-09-17T07:18:25.285Z,15.43
2022-09-17T07:21:02.880Z,14.68
2022-09-17T07:23:35.351Z,13.70
2022-09-17T07:26:05.108Z,17.27
2022-09-17T07:28:32.877Z,18.17
2022-09-17T07:31:03.803Z,20.95
2022-09-17T07:33:30.548Z,20.25
2022-09-17T07:35:59.583Z,15.52
2022-09-17T07:38:27.392Z,17.48
2022-09-17T07:41:09.839Z,15.25
2022-09-17T07:43:36.810Z,12.48
2022-09-17T07:46:05.352Z,14.38
2022-09-17T07:48:32.736Z,10.63
2022-09-17T07:50:59.337Z,7.20
2022-09-17T07:53:27.043Z,8.70
2022-09-17T07:55:55.451Z,8.23
2022-09-17T07:58:33.829Z,10.02
2022-09-17T08:01:05.297Z,13.63
2022-09-17T08:03:31.945Z,11.02
2022-09-17T08:06:10.135Z,10.45
2022-09-17T08:08:39.427Z,10.98
2022-09-17T08:11:11.512Z,9.70
2022-09-17T08:13:38.509Z,6.95
2022-09-17T08:16:07.535Z,10.30
2022-09-17T08:18:35.675Z,9.07
2022-09-17T08:21:04.728Z,12.30
2022-09-17T08:23:34.048Z,11.13
2022-09-17T08:26:00.945Z,10.63
2022-09-17T08:28:30.052Z,8.10
2022-09-17T08:31:19.213Z,9.15
2022-09-17T08:33:47.303Z,7.60
2022-09-17T08:36:15.889Z,11.68
2022-09-17T08:38:42.544Z,12.07
2022-09-17T08:41:28.824Z,6.75
2022-09-17T08:44:07.485Z,8.60
2022-09-17T08:46:42.692Z,6.68
2022-09-17T08:49:34.174Z,7.75
2022-09-17T08:52:37.684Z,5.80
2022-09-17T08:55:33.903Z,7.97
2022-09-17T08:58:05.093Z,5.10
2022-09-17T09:00:57.515Z,6.30
2022-09-17T09:06:10.480Z,8.60
2022-09-17T09:08:51.323Z,7.05
2022-09-17T09:11:26.404Z,4.97
2022-09-17T09:14:05.456Z,8.90
2022-09-17T09:16:37.817Z,7.45
2022-09-17T09:19:28.270Z,5.72
2022-09-17T09:22:13.685Z,8.80
2022-09-17T09:25:12.684Z,5.53
2022-09-17T09:27:56.477Z,7.13
2022-09-17T09:30:24.938Z,8.30
2022-09-17T09:36:15.783Z,9.38
2022-09-17T09:38:57.764Z,8.50
2022-09-17T09:41:31.832Z,6.00
2022-09-17T09:44:04.794Z,6.63
2022-09-17T09:46:55.479Z,8.10
2022-09-17T09:49:48.331Z,8.95
2022-09-17T09:52:23.958Z,5.22
2022-09-17T09:55:26.387Z,6.10
2022-09-17T10:00:55.182Z,9.47
2022-09-17T10:03:26.361Z,8.57
2022-09-17T10:06:02.041Z,4.70
2022-09-17T10:08:33.132Z,6.47
2022-09-17T10:11:18.000Z,4.63
2022-09-17T10:13:44.603Z,3.42
2022-09-17T10:16:26.191Z,5.85
2022-09-17T10:19:07.907Z,9.63
2022-09-17T10:21:36.702Z,6.88
2022-09-17T10:24:05.253Z,7.03
2022-09-17T10:26:36.956Z,7.85
2022-09-17T10:29:06.676Z,5.38
2022-09-17T10:31:54.633Z,5.03
2022-09-17T10:34:41.177Z,6.38
2022-09-17T10:37:32.703Z,5.28
2022-09-17T10:39:59.329Z,6.57
2022-09-17T10:42:25.843Z,4.88
2022-09-17T10:44:57.274Z,6.50
2022-09-17T10:47:36.091Z,4.65
2022-09-17T10:50:08.329Z,4.78
2022-09-17T10:52:38.109Z,7.40
2022-09-17T10:55:29.553Z,6.57
2022-09-17T10:58:07.142Z,7.03
2022-09-17T11:01:11.007Z,8.65
2022-09-17T11:03:56.501Z,5.35
2022-09-17T11:06:54.580Z,5.70
2022-09-17T11:09:33.334Z,6.55
2022-09-17T11:12:30.659Z,5.55
2022-09-17T11:15:18.269Z,8.07
2022-09-17T11:18:05.840Z,10.20
2022-09-17T11:20:54.213Z,6.80
2022-09-17T11:23:54.828Z,10.77
2022-09-17T11:26:46.079Z,8.07
2022-09-17T11:29:50.971Z,6.22
2022-09-17T11:32:35.980Z,7.82
2022-09-17T11:35:17.444Z,10.73
2022-09-17T11:38:06.484Z,7.70
2022-09-17T11:40:43.484Z,8.07
2022-09-17T11:43:25.837Z,11.80
2022-09-17T11:46:25.296Z,9.88
2022-09-17T11:48:55.389Z,8.18
2022-09-17T11:51:32.761Z,10.35
2022-09-17T11:54:20.878Z,8.38
2022-09-17T11:57:27.950Z,10.93
2022-09-17T11:59:57.091Z,13.18
2022-09-17T12:02:33.121Z,10.25
2022-09-17T12:05:08.623Z,11.57
2022-09-17T12:07:54.744Z,10.27
2022-09-17T12:10:42.265Z,13.23
2022-09-17T12:13:30.743Z,8.15
2022-09-17T12:16:25.365Z,11.23
2022-09-17T12:19:05.534Z,11.05
2022-09-17T12:21:40.929Z,8.43
2022-09-17T12:24:25.339Z,8.52
2022-09-17T12:27:08.255Z,7.53
2022-09-17T12:30:07.009Z,11.60
2022-09-17T12:32:43.313Z,9.45
2022-09-17T12:36:03.660Z,15.00
2022-09-17T12:39:03.515Z,9.50
2022-09-17T12:41:39.165Z,7.13
2022-09-17T12:44:11.945Z,14.57
2022-09-17T12:46:53.866Z,10.05
2022-09-17T12:49:43.851Z,11.40
2022-09-17T12:52:25.715Z,10.55
2022-09-17T12:55:04.098Z,9.43
2022-09-17T12:58:00.893Z,7.53
2022-09-17T13:00:41.445Z,8.30
2022-09-17T13:03:16.317Z,8.13
2022-09-17T13:06:22.245Z,10.35
2022-09-17T13:09:16.591Z,9.20
2022-09-17T13:11:55.022Z,8.20
2022-09-17T13:14:25.396Z,8.82
2022-09-17T13:17:19.483Z,8.45
2022-09-17T13:19:52.880Z,14.68
2022-09-17T13:22:23.480Z,7.57
2022-09-17T13:25:09.584Z,9.48
2022-09-17T13:27:38.206Z,7.97
2022-09-17T13:30:10.956Z,14.68
2022-09-17T13:32:39.691Z,7.28
2022-09-17T13:35:15.093Z,8.52
2022-09-17T13:37:53.788Z,9.07
2022-09-17T13:40:29.433Z,8.68
2022-09-17T13:43:08.397Z,8.35
2022-09-17T13:46:01.065Z,11.27
2022-09-17T13:48:34.509Z,8.32
2022-09-17T13:51:39.129Z,11.45
2022-09-17T13:54:08.549Z,13.25
2022-09-17T13:56:46.027Z,10.18
2022-09-17T13:59:20.703Z,10.70
2022-09-17T14:01:56.351Z,11.98
2022-09-17T14:04:41.083Z,14.05
2022-09-17T14:07:26.698Z,10.43
2022-09-17T14:10:25.777Z,10.77
2022-09-17T14:12:56.080Z,9.75
2022-09-17T14:15:36.546Z,9.80
2022-09-17T14:18:28.825Z,11.02
2022-09-17T14:23:34.175Z,12.63
2022-09-17T14:28:28.740Z,13.73
2022-09-17T14:30:55.455Z,20.30
2022-09-17T14:33:31.901Z,13.20
2022-09-17T14:36:10.670Z,9.75
2022-09-17T14:38:38.467Z,9.80
2022-09-17T14:41:24.321Z,12.77
2022-09-17T14:44:08.337Z,8.48
2022-09-17T14:47:10.462Z,9.85
2022-09-17T14:49:39.907Z,11.15
2022-09-17T14:52:28.086Z,11.05
2022-09-17T14:55:15.433Z,13.88
2022-09-17T14:57:44.132Z,10.82
2022-09-17T15:00:31.409Z,10.05
2022-09-17T15:03:00.655Z,10.85
2022-09-17T15:05:33.684Z,8.02
2022-09-17T15:08:11.270Z,8.13
2022-09-17T15:10:47.004Z,10.35
2022-09-17T15:13:53.078Z,11.35
2022-09-17T15:16:25.404Z,6.72
2022-09-17T15:18:53.137Z,8.77
2022-09-17T15:21:40.044Z,17.65
2022-09-17T15:24:27.667Z,38.42
2022-09-17T15:26:58.948Z,16.13
2022-09-17T15:29:30.027Z,15.43
2022-09-17T15:31:57.087Z,13.38
2022-09-17T15:34:23.785Z,9.65
2022-09-17T15:37:21.028Z,12.25
2022-09-17T15:39:54.592Z,9.02
2022-09-17T15:42:27.991Z,9.20
2022-09-17T15:45:22.133Z,11.85
2022-09-17T15:47:51.114Z,10.95
2022-09-17T15:50:29.676Z,13.05
2022-09-17T15:53:13.387Z,17.85
2022-09-17T15:56:05.131Z,15.05
2022-09-17T15:58:35.639Z,18.10
2022-09-17T16:01:14.659Z,14.88
2022-09-17T16:03:41.744Z,10.38
2022-09-17T16:06:20.845Z,11.35
2022-09-17T16:08:51.534Z,12.88
2022-09-17T16:11:22.907Z,14.05
2022-09-17T16:13:53.847Z,13.10
2022-09-17T16:16:22.957Z,17.90
2022-09-17T16:18:50.356Z,18.58
2022-09-17T16:21:18.552Z,13.63
2022-09-17T16:23:46.088Z,14.43
2022-09-17T16:26:17.181Z,14.35
2022-09-17T16:28:48.474Z,12.77
2022-09-17T16:31:15.433Z,12.13
2022-09-17T16:33:41.980Z,16.00
2022-09-17T16:36:08.615Z,11.90
2022-09-17T16:38:36.040Z,15.60
2022-09-17T16:41:05.148Z,15.55
2022-09-17T16:43:34.610Z,17.30
2022-09-17T16:46:03.137Z,20.40
2022-09-17T16:48:29.804Z,15.23
2022-09-17T16:50:56.401Z,13.75
2022-09-17T16:53:22.896Z,13.23
2022-09-17T16:55:49.460Z,14.65
2022-09-17T16:58:16.188Z,14.98
2022-09-17T17:00:43.318Z,20.38
2022-09-17T17:03:13.263Z,18.15
2022-09-17T17:05:40.276Z,19.33
2022-09-17T17:08:08.764Z,13.00
2022-09-17T17:10:37.859Z,16.23
2022-09-17T17:13:05.148Z,13.57
2022-09-17T17:15:34.636Z,18.52
2022-09-17T17:18:01.130Z,18.73
2022-09-17T17:20:27.873Z,17.63
2022-09-17T17:22:55.261Z,22.02
2022-09-17T17:25:23.647Z,16.88
2022-09-17T17:27:50.567Z,14.75
2022-09-17T17:30:19.279Z,18.65
2022-09-17T17:32:50.471Z,20.90
2022-09-17T17:35:17.384Z,20.40
2022-09-17T17:37:43.869Z,18.20
2022-09-17T17:40:10.786Z,16.15
2022-09-17T17:42:39.433Z,16.58
2022-09-17T17:45:07.778Z,19.30
2022-09-17T17:47:34.883Z,22.05
2022-09-17T17:50:01.617Z,19.52
2022-09-17T17:52:28.251Z,19.23
2022-09-17T17:54:55.177Z,17.92
2022-09-17T17:57:21.791Z,19.30
2022-09-17T17:59:48.345Z,20.15
2022-09-17T18:02:14.990Z,17.35
2022-09-17T18:04:41.681Z,17.85
2022-09-17T18:07:08.187Z,16.13
2022-09-17T18:09:35.511Z,18.50
2022-09-17T18:12:02.215Z,16.20
2022-09-17T18:14:28.825Z,13.15
2022-09-17T18:16:55.453Z,19.98
2022-09-17T18:19:22.010Z,22.33
2022-09-17T18:21:48.564Z,21.88
2022-09-17T18:24:15.163Z,23.20
2022-09-17T18:26:41.653Z,19.25
2022-09-17T18:29:08.510Z,20.48
2022-09-17T18:31:36.170Z,24.35
2022-09-17T18:34:07.196Z,24.40
2022-09-17T18:36:35.579Z,23.73
2022-09-17T18:41:53.245Z,22.65
2022-09-17T18:44:21.640Z,25.05
2022-09-17T18:46:50.075Z,28.60
2022-09-17T18:49:17.129Z,25.15
2022-09-17T18:51:43.907Z,25.98
2022-09-17T18:54:12.540Z,25.98
2022-09-17T18:56:41.425Z,26.33
2022-09-17T18:59:08.509Z,27.55
2022-09-17T19:01:35.726Z,26.33
2022-09-17T19:04:03.196Z,25.23
2022-09-17T19:06:31.875Z,26.20
2022-09-17T19:09:01.940Z,27.88
2022-09-17T19:11:29.060Z,24.33
2022-09-17T19:13:55.785Z,22.90
2022-09-17T19:16:22.719Z,25.48
2022-09-17T19:18:50.778Z,24.42
2022-09-17T19:21:20.611Z,30.05
2022-09-17T19:23:49.492Z,29.63
2022-09-17T19:26:22.367Z,29.38
2022-09-17T19:28:55.262Z,29.90
2022-09-17T19:31:22.467Z,36.13
2022-09-17T19:33:51.518Z,28.02
2022-09-17T19:36:19.292Z,27.20
2022-09-17T19:38:46.617Z,30.92
2022-09-17T19:41:23.044Z,36.15
2022-09-17T19:43:54.065Z,27.58
2022-09-17T19:46:24.047Z,39.85
2022-09-17T19:48:56.174Z,30.92
2022-09-17T19:53:50.899Z,30.52
2022-09-17T19:56:21.580Z,33.75
2022-09-17T19:58:48.448Z,34.70
2022-09-17T20:01:15.439Z,33.30
2022-09-17T20:03:44.093Z,30.77
2022-09-17T20:06:22.987Z,40.83
2022-09-17T20:09:04.295Z,33.47
2022-09-17T20:11:42.627Z,32.13
2022-09-17T20:17:03.901Z,47.20
2022-09-17T20:19:30.674Z,35.70
2022-09-17T20:21:57.154Z,34.25
2022-09-17T20:24:23.856Z,31.55
2022-09-17T20:26:50.374Z,33.45
2022-09-17T20:29:17.399Z,36.53
2022-09-17T20:31:43.943Z,31.35
2022-09-17T20:34:12.472Z,35.47
2022-09-17T20:36:39.001Z,32.10
2022-09-17T20:39:13.483Z,34.45
2022-09-17T20:41:43.496Z,34.85
2022-09-17T20:44:10.075Z,32.20
2022-09-17T20:46:36.806Z,34.45
2022-09-17T20:49:03.567Z,36.72
2022-09-17T20:51:30.773Z,31.67
2022-09-17T20:53:57.866Z,34.40
2022-09-17T20:56:31.697Z,39.80
2022-09-17T20:59:08.452Z,37.20
2022-09-17T21:03:10.248Z,47.85
2022-09-17T21:06:01.541Z,33.35
2022-09-17T21:10:45.001Z,41.67
2022-09-17T21:13:11.638Z,34.88
2022-09-17T21:15:38.187Z,35.58
2022-09-17T21:18:06.127Z,36.75
2022-09-17T21:20:37.661Z,37.05
2022-09-17T21:23:04.502Z,41.80
2022-09-17T21:25:31.112Z,41.55
2022-09-17T21:27:58.663Z,42.35
2022-09-17T21:30:25.593Z,40.42
2022-09-17T21:32:53.678Z,40.88
2022-09-17T21:35:20.222Z,35.58
2022-09-17T21:37:46.859Z,41.97
2022-09-17T21:40:13.442Z,33.65
2022-09-17T21:42:40.073Z,42.13
2022-09-17T21:45:06.936Z,35.40
2022-09-17T21:47:33.568Z,34.47
2022-09-17T21:50:00.064Z,31.95
2022-09-17T21:52:28.903Z,29.88
2022-09-17T21:54:55.537Z,34.60
2022-09-17T21:57:22.132Z,30.88
2022-09-17T21:59:48.605Z,25.77
2022-09-17T22:02:15.441Z,29.75
2022-09-17T22:04:41.932Z,27.85
2022-09-17T22:07:08.469Z,31.67
2022-09-17T22:09:35.280Z,23.45
2022-09-17T22:12:02.728Z,22.73
2022-09-17T22:14:29.225Z,26.38
2022-09-17T22:16:58.674Z,21.40
2022-09-17T22:19:26.126Z,22.20
2022-09-17T22:21:55.217Z,29.83
2022-09-17T22:24:23.009Z,23.98
2022-09-17T22:26:56.575Z,21.23
2022-09-17T22:29:25.469Z,17.00
2022-09-17T22:31:52.016Z,17.55
2022-09-17T22:34:20.946Z,14.65
2022-09-17T22:36:48.204Z,20.45
2022-09-17T22:39:15.328Z,17.48
2022-09-17T22:41:45.751Z,23.13
2022-09-17T22:44:16.718Z,19.05
2022-09-17T22:46:46.082Z,17.67
2022-09-17T22:49:12.844Z,18.65
2022-09-17T22:51:40.099Z,22.35
2022-09-17T22:54:07.325Z,19.33
2022-09-17T22:56:35.363Z,21.30
2022-09-17T22:59:02.033Z,13.48
2022-09-17T23:01:33.702Z,16.05
2022-09-17T23:04:01.210Z,23.27
2022-09-17T23:06:30.472Z,16.73
2022-09-17T23:08:57.658Z,17.92
2022-09-17T23:11:30.570Z,23.13
2022-09-17T23:14:01.972Z,18.08
2022-09-17T23:16:34.276Z,15.02
2022-09-17T23:19:02.274Z,19.80
2022-09-17T23:21:28.994Z,21.67
2022-09-17T23:23:55.605Z,19.88
2022-09-17T23:26:24.688Z,13.77
2022-09-17T23:28:51.731Z,16.33
2022-09-17T23:31:27.354Z,14.65
2022-09-17T23:33:56.086Z,16.77
2022-09-17T23:36:25.381Z,22.30
2022-09-17T23:38:53.268Z,15.88
2022-09-17T23:41:31.851Z,38.05
2022-09-17T23:44:01.579Z,23.25
2022-09-17T23:46:31.184Z,15.32
2022-09-17T23:48:58.292Z,19.17
2022-09-17T23:51:26.955Z,14.05
2022-09-17T23:53:54.510Z,13.27
2022-09-17T23:56:25.135Z,16.35
2022-09-17T23:58:52.855Z,19.02
